sensor_id;sensor_type;location;lat;lon;timestamp;temperature;humidity
8792;DHT22;4432;50.890;4.744;2023-08-07T00:00:46;12.60;99.90
8792;DHT22;4432;50.890;4.744;2023-08-07T00:03:12;12.60;99.90
8792;DHT22;4432;50.890;4.744;2023-08-07T00:05:45;12.50;99.90
8792;DHT22;4432;50.890;4.744;2023-08-07T00:08:12;12.50;99.90
8792;DHT22;4432;50.890;4.744;2023-08-07T00:10:37;12.60;99.90
8792;DHT22;4432;50.890;4.744;2023-08-07T00:13:03;12.50;99.90
8792;DHT22;4432;50.890;4.744;2023-08-07T00:15:29;12.50;99.90
8792;DHT22;4432;50.890;4.744;2023-08-07T00:17:55;12.60;99.90
8792;DHT22;4432;50.890;4.744;2023-08-07T00:20:21;12.60;99.90
8792;DHT22;4432;50.890;4.744;2023-08-07T00:22:46;12.50;99.90
8792;DHT22;4432;50.890;4.744;2023-08-07T00:25:12;12.50;99.90
8792;DHT22;4432;50.890;4.744;2023-08-07T00:27:38;12.50;99.90
8792;DHT22;4432;50.890;4.744;2023-08-07T00:30:04;12.50;99.90
8792;DHT22;4432;50.890;4.744;2023-08-07T00:32:30;12.50;99.90
8792;DHT22;4432;50.890;4.744;2023-08-07T00:34:56;12.50;99.90
8792;DHT22;4432;50.890;4.744;2023-08-07T00:37:21;12.50;99.90
8792;DHT22;4432;50.890;4.744;2023-08-07T00:39:47;12.50;99.90
8792;DHT22;4432;50.890;4.744;2023-08-07T00:42:13;12.40;99.90
8792;DHT22;4432;50.890;4.744;2023-08-07T00:44:39;12.50;99.90
8792;DHT22;4432;50.890;4.744;2023-08-07T00:47:05;12.40;99.90
8792;DHT22;4432;50.890;4.744;2023-08-07T00:49:31;12.40;99.90
8792;DHT22;4432;50.890;4.744;2023-08-07T00:51:57;12.30;99.90
8792;DHT22;4432;50.890;4.744;2023-08-07T00:54:24;12.20;99.90
8792;DHT22;4432;50.890;4.744;2023-08-07T00:56:50;12.20;99.90
8792;DHT22;4432;50.890;4.744;2023-08-07T00:59:16;12.20;99.90
8792;DHT22;4432;50.890;4.744;2023-08-07T01:01:43;12.20;99.90
8792;DHT22;4432;50.890;4.744;2023-08-07T01:04:09;12.20;99.90
8792;DHT22;4432;50.890;4.744;2023-08-07T01:06:35;12.30;99.90
8792;DHT22;4432;50.890;4.744;2023-08-07T01:09:01;12.30;99.90
8792;DHT22;4432;50.890;4.744;2023-08-07T01:11:39;12.40;99.90
8792;DHT22;4432;50.890;4.744;2023-08-07T01:14:28;12.40;99.90
8792;DHT22;4432;50.890;4.744;2023-08-07T01:17:09;12.50;99.90
8792;DHT22;4432;50.890;4.744;2023-08-07T01:19:36;12.50;99.90
8792;DHT22;4432;50.890;4.744;2023-08-07T01:24:38;12.50;99.90
8792;DHT22;4432;50.890;4.744;2023-08-07T01:32:11;12.50;99.90
8792;DHT22;4432;50.890;4.744;2023-08-07T01:34:41;12.50;99.90
8792;DHT22;4432;50.890;4.744;2023-08-07T01:37:07;12.40;99.90
8792;DHT22;4432;50.890;4.744;2023-08-07T01:39:36;12.40;99.90
8792;DHT22;4432;50.890;4.744;2023-08-07T01:42:03;12.20;99.90
8792;DHT22;4432;50.890;4.744;2023-08-07T01:44:30;12.20;99.90
8792;DHT22;4432;50.890;4.744;2023-08-07T01:46:56;12.20;99.90
8792;DHT22;4432;50.890;4.744;2023-08-07T01:49:22;12.20;99.90
8792;DHT22;4432;50.890;4.744;2023-08-07T01:51:48;12.20;99.90
8792;DHT22;4432;50.890;4.744;2023-08-07T01:54:13;12.10;99.90
8792;DHT22;4432;50.890;4.744;2023-08-07T01:56:39;12.10;99.90
8792;DHT22;4432;50.890;4.744;2023-08-07T01:59:05;12.10;99.90
8792;DHT22;4432;50.890;4.744;2023-08-07T02:01:30;12.20;99.90
8792;DHT22;4432;50.890;4.744;2023-08-07T02:03:56;12.20;99.90
8792;DHT22;4432;50.890;4.744;2023-08-07T02:06:22;12.20;99.90
8792;DHT22;4432;50.890;4.744;2023-08-07T02:08:47;12.10;99.90
8792;DHT22;4432;50.890;4.744;2023-08-07T02:11:13;12.10;99.90
8792;DHT22;4432;50.890;4.744;2023-08-07T02:13:39;12.10;99.90
8792;DHT22;4432;50.890;4.744;2023-08-07T02:16:05;12.10;99.90
8792;DHT22;4432;50.890;4.744;2023-08-07T02:18:30;12.10;99.90
8792;DHT22;4432;50.890;4.744;2023-08-07T02:20:56;12.10;99.90
8792;DHT22;4432;50.890;4.744;2023-08-07T02:23:22;12.20;99.90
8792;DHT22;4432;50.890;4.744;2023-08-07T02:25:48;12.20;99.90
8792;DHT22;4432;50.890;4.744;2023-08-07T02:28:14;12.30;99.90
8792;DHT22;4432;50.890;4.744;2023-08-07T02:30:40;12.20;99.90
8792;DHT22;4432;50.890;4.744;2023-08-07T02:33:05;12.20;99.90
8792;DHT22;4432;50.890;4.744;2023-08-07T02:35:31;12.10;99.90
8792;DHT22;4432;50.890;4.744;2023-08-07T02:37:57;12.10;99.90
8792;DHT22;4432;50.890;4.744;2023-08-07T02:40:22;12.00;99.90
8792;DHT22;4432;50.890;4.744;2023-08-07T02:42:48;12.00;99.90
8792;DHT22;4432;50.890;4.744;2023-08-07T02:45:14;12.00;99.90
8792;DHT22;4432;50.890;4.744;2023-08-07T02:47:40;12.00;99.90
8792;DHT22;4432;50.890;4.744;2023-08-07T02:50:06;11.90;99.90
8792;DHT22;4432;50.890;4.744;2023-08-07T02:52:31;11.90;99.90
8792;DHT22;4432;50.890;4.744;2023-08-07T02:54:57;11.90;99.90
8792;DHT22;4432;50.890;4.744;2023-08-07T02:57:24;11.90;99.90
8792;DHT22;4432;50.890;4.744;2023-08-07T02:59:50;11.90;99.90
8792;DHT22;4432;50.890;4.744;2023-08-07T03:02:16;11.90;99.90
8792;DHT22;4432;50.890;4.744;2023-08-07T03:04:42;11.90;99.90
8792;DHT22;4432;50.890;4.744;2023-08-07T03:07:08;12.00;99.90
8792;DHT22;4432;50.890;4.744;2023-08-07T03:09:33;12.00;99.90
8792;DHT22;4432;50.890;4.744;2023-08-07T03:11:59;11.90;99.90
8792;DHT22;4432;50.890;4.744;2023-08-07T03:14:28;11.90;99.90
8792;DHT22;4432;50.890;4.744;2023-08-07T03:16:55;11.90;99.90
8792;DHT22;4432;50.890;4.744;2023-08-07T03:19:21;11.90;99.90
8792;DHT22;4432;50.890;4.744;2023-08-07T03:21:47;11.80;99.90
8792;DHT22;4432;50.890;4.744;2023-08-07T03:24:12;11.70;99.90
8792;DHT22;4432;50.890;4.744;2023-08-07T03:26:38;11.80;99.90
8792;DHT22;4432;50.890;4.744;2023-08-07T03:29:04;11.70;99.90
8792;DHT22;4432;50.890;4.744;2023-08-07T03:31:30;11.80;99.90
8792;DHT22;4432;50.890;4.744;2023-08-07T03:33:55;11.70;99.90
8792;DHT22;4432;50.890;4.744;2023-08-07T03:36:21;11.80;99.90
8792;DHT22;4432;50.890;4.744;2023-08-07T03:38:47;11.80;99.90
8792;DHT22;4432;50.890;4.744;2023-08-07T03:41:13;11.80;99.90
8792;DHT22;4432;50.890;4.744;2023-08-07T03:43:39;11.80;99.90
8792;DHT22;4432;50.890;4.744;2023-08-07T03:46:04;11.80;99.90
8792;DHT22;4432;50.890;4.744;2023-08-07T03:48:30;11.90;99.90
8792;DHT22;4432;50.890;4.744;2023-08-07T03:51:06;12.10;99.90
8792;DHT22;4432;50.890;4.744;2023-08-07T03:53:36;12.20;99.90
8792;DHT22;4432;50.890;4.744;2023-08-07T03:56:02;12.30;99.90
8792;DHT22;4432;50.890;4.744;2023-08-07T03:58:28;12.40;99.90
8792;DHT22;4432;50.890;4.744;2023-08-07T04:00:54;12.50;99.90
8792;DHT22;4432;50.890;4.744;2023-08-07T04:03:20;12.60;99.90
8792;DHT22;4432;50.890;4.744;2023-08-07T04:05:46;12.70;99.90
8792;DHT22;4432;50.890;4.744;2023-08-07T04:08:12;12.80;99.90
8792;DHT22;4432;50.890;4.744;2023-08-07T04:10:38;12.80;99.90
8792;DHT22;4432;50.890;4.744;2023-08-07T04:13:03;12.90;99.90
8792;DHT22;4432;50.890;4.744;2023-08-07T04:15:29;12.90;99.90
8792;DHT22;4432;50.890;4.744;2023-08-07T04:17:55;12.90;99.90
8792;DHT22;4432;50.890;4.744;2023-08-07T04:20:21;12.90;99.90
8792;DHT22;4432;50.890;4.744;2023-08-07T04:22:47;12.90;99.90
8792;DHT22;4432;50.890;4.744;2023-08-07T04:25:13;12.80;99.90
8792;DHT22;4432;50.890;4.744;2023-08-07T04:27:39;12.80;99.90
8792;DHT22;4432;50.890;4.744;2023-08-07T04:30:05;12.80;99.90
8792;DHT22;4432;50.890;4.744;2023-08-07T04:32:31;12.90;99.90
8792;DHT22;4432;50.890;4.744;2023-08-07T04:34:58;12.90;99.90
8792;DHT22;4432;50.890;4.744;2023-08-07T04:37:24;12.90;99.90
8792;DHT22;4432;50.890;4.744;2023-08-07T04:39:50;12.90;99.90
8792;DHT22;4432;50.890;4.744;2023-08-07T04:42:15;12.90;99.90
8792;DHT22;4432;50.890;4.744;2023-08-07T04:44:41;12.90;99.90
8792;DHT22;4432;50.890;4.744;2023-08-07T04:47:07;12.90;99.90
8792;DHT22;4432;50.890;4.744;2023-08-07T04:49:32;12.90;99.90
8792;DHT22;4432;50.890;4.744;2023-08-07T04:51:58;12.90;99.90
8792;DHT22;4432;50.890;4.744;2023-08-07T04:54:24;12.90;99.90
8792;DHT22;4432;50.890;4.744;2023-08-07T04:56:50;13.00;99.90
8792;DHT22;4432;50.890;4.744;2023-08-07T04:59:15;13.00;99.90
8792;DHT22;4432;50.890;4.744;2023-08-07T05:01:41;13.00;99.90
8792;DHT22;4432;50.890;4.744;2023-08-07T05:04:07;13.10;99.90
8792;DHT22;4432;50.890;4.744;2023-08-07T05:06:33;13.10;99.90
8792;DHT22;4432;50.890;4.744;2023-08-07T05:08:58;13.00;99.90
8792;DHT22;4432;50.890;4.744;2023-08-07T05:11:24;13.00;99.90
8792;DHT22;4432;50.890;4.744;2023-08-07T05:13:50;13.10;99.90
8792;DHT22;4432;50.890;4.744;2023-08-07T05:16:15;13.10;99.90
8792;DHT22;4432;50.890;4.744;2023-08-07T05:18:44;13.10;99.90
8792;DHT22;4432;50.890;4.744;2023-08-07T05:21:10;13.10;99.90
8792;DHT22;4432;50.890;4.744;2023-08-07T05:23:35;13.00;99.90
8792;DHT22;4432;50.890;4.744;2023-08-07T05:26:01;13.00;99.90
8792;DHT22;4432;50.890;4.744;2023-08-07T05:28:27;13.00;99.90
8792;DHT22;4432;50.890;4.744;2023-08-07T05:30:53;13.00;99.90
8792;DHT22;4432;50.890;4.744;2023-08-07T05:33:19;13.10;99.90
8792;DHT22;4432;50.890;4.744;2023-08-07T05:35:45;13.10;99.90
8792;DHT22;4432;50.890;4.744;2023-08-07T05:38:10;13.10;99.90
8792;DHT22;4432;50.890;4.744;2023-08-07T05:40:36;13.10;99.90
8792;DHT22;4432;50.890;4.744;2023-08-07T05:43:02;13.20;99.90
8792;DHT22;4432;50.890;4.744;2023-08-07T05:45:28;13.20;99.90
8792;DHT22;4432;50.890;4.744;2023-08-07T05:47:54;13.20;99.90
8792;DHT22;4432;50.890;4.744;2023-08-07T05:50:19;13.10;99.90
8792;DHT22;4432;50.890;4.744;2023-08-07T05:52:45;13.10;99.90
8792;DHT22;4432;50.890;4.744;2023-08-07T05:55:11;13.20;99.90
8792;DHT22;4432;50.890;4.744;2023-08-07T05:57:36;13.30;99.90
8792;DHT22;4432;50.890;4.744;2023-08-07T06:00:03;13.40;99.90
8792;DHT22;4432;50.890;4.744;2023-08-07T06:02:29;13.50;99.90
8792;DHT22;4432;50.890;4.744;2023-08-07T06:04:55;13.60;99.90
8792;DHT22;4432;50.890;4.744;2023-08-07T06:07:20;13.60;99.90
8792;DHT22;4432;50.890;4.744;2023-08-07T06:09:46;13.70;99.90
8792;DHT22;4432;50.890;4.744;2023-08-07T06:12:12;13.80;99.90
8792;DHT22;4432;50.890;4.744;2023-08-07T06:14:37;13.80;99.90
8792;DHT22;4432;50.890;4.744;2023-08-07T06:17:04;14.00;99.90
8792;DHT22;4432;50.890;4.744;2023-08-07T06:19:30;14.10;99.90
8792;DHT22;4432;50.890;4.744;2023-08-07T06:21:55;14.10;99.90
8792;DHT22;4432;50.890;4.744;2023-08-07T06:24:22;14.20;99.90
8792;DHT22;4432;50.890;4.744;2023-08-07T06:26:47;14.30;99.90
8792;DHT22;4432;50.890;4.744;2023-08-07T06:29:13;14.40;99.90
8792;DHT22;4432;50.890;4.744;2023-08-07T06:31:39;14.50;99.90
8792;DHT22;4432;50.890;4.744;2023-08-07T06:34:05;14.50;99.90
8792;DHT22;4432;50.890;4.744;2023-08-07T06:36:30;14.60;99.90
8792;DHT22;4432;50.890;4.744;2023-08-07T06:38:56;14.70;99.90
8792;DHT22;4432;50.890;4.744;2023-08-07T06:41:22;14.80;99.90
8792;DHT22;4432;50.890;4.744;2023-08-07T06:43:48;15.00;99.90
8792;DHT22;4432;50.890;4.744;2023-08-07T06:46:15;15.00;99.90
8792;DHT22;4432;50.890;4.744;2023-08-07T06:48:41;15.10;99.90
8792;DHT22;4432;50.890;4.744;2023-08-07T06:51:06;15.20;99.90
8792;DHT22;4432;50.890;4.744;2023-08-07T06:53:32;15.30;99.90
8792;DHT22;4432;50.890;4.744;2023-08-07T06:55:58;15.30;99.90
8792;DHT22;4432;50.890;4.744;2023-08-07T06:58:23;15.50;99.90
8792;DHT22;4432;50.890;4.744;2023-08-07T07:00:49;15.50;99.90
8792;DHT22;4432;50.890;4.744;2023-08-07T07:03:15;15.60;99.90
8792;DHT22;4432;50.890;4.744;2023-08-07T07:05:41;15.60;99.90
8792;DHT22;4432;50.890;4.744;2023-08-07T07:08:08;15.70;99.90
8792;DHT22;4432;50.890;4.744;2023-08-07T07:10:34;15.80;99.90
8792;DHT22;4432;50.890;4.744;2023-08-07T07:13:00;15.90;99.90
8792;DHT22;4432;50.890;4.744;2023-08-07T07:15:25;15.90;99.90
8792;DHT22;4432;50.890;4.744;2023-08-07T07:17:51;16.00;99.90
8792;DHT22;4432;50.890;4.744;2023-08-07T07:20:17;16.10;99.90
8792;DHT22;4432;50.890;4.744;2023-08-07T07:22:43;16.10;99.90
8792;DHT22;4432;50.890;4.744;2023-08-07T07:25:09;16.10;99.90
8792;DHT22;4432;50.890;4.744;2023-08-07T07:27:35;16.20;99.90
8792;DHT22;4432;50.890;4.744;2023-08-07T07:30:01;16.20;99.90
8792;DHT22;4432;50.890;4.744;2023-08-07T07:32:27;16.30;99.90
8792;DHT22;4432;50.890;4.744;2023-08-07T07:34:52;16.30;99.90
8792;DHT22;4432;50.890;4.744;2023-08-07T07:37:18;16.30;99.90
8792;DHT22;4432;50.890;4.744;2023-08-07T07:39:44;16.50;99.90
8792;DHT22;4432;50.890;4.744;2023-08-07T07:42:10;16.50;99.90
8792;DHT22;4432;50.890;4.744;2023-08-07T07:44:35;16.70;99.90
8792;DHT22;4432;50.890;4.744;2023-08-07T07:47:02;16.90;99.90
8792;DHT22;4432;50.890;4.744;2023-08-07T07:49:27;16.90;99.90
8792;DHT22;4432;50.890;4.744;2023-08-07T07:51:53;17.00;99.90
8792;DHT22;4432;50.890;4.744;2023-08-07T07:54:19;16.90;99.90
8792;DHT22;4432;50.890;4.744;2023-08-07T07:56:45;16.80;99.90
8792;DHT22;4432;50.890;4.744;2023-08-07T07:59:11;16.80;99.90
8792;DHT22;4432;50.890;4.744;2023-08-07T08:01:37;16.80;99.90
8792;DHT22;4432;50.890;4.744;2023-08-07T08:04:03;16.70;99.90
8792;DHT22;4432;50.890;4.744;2023-08-07T08:06:29;16.80;99.90
8792;DHT22;4432;50.890;4.744;2023-08-07T08:08:56;16.90;99.90
8792;DHT22;4432;50.890;4.744;2023-08-07T08:11:22;17.10;99.90
8792;DHT22;4432;50.890;4.744;2023-08-07T08:13:48;17.10;99.90
8792;DHT22;4432;50.890;4.744;2023-08-07T08:16:14;17.20;99.90
8792;DHT22;4432;50.890;4.744;2023-08-07T08:18:40;17.30;99.90
8792;DHT22;4432;50.890;4.744;2023-08-07T08:21:06;17.50;99.90
8792;DHT22;4432;50.890;4.744;2023-08-07T08:23:32;17.70;99.90
8792;DHT22;4432;50.890;4.744;2023-08-07T08:25:58;17.70;99.90
8792;DHT22;4432;50.890;4.744;2023-08-07T08:28:23;17.80;99.90
8792;DHT22;4432;50.890;4.744;2023-08-07T08:30:49;17.90;99.90
8792;DHT22;4432;50.890;4.744;2023-08-07T08:33:15;17.90;99.90
8792;DHT22;4432;50.890;4.744;2023-08-07T08:35:41;17.80;99.90
8792;DHT22;4432;50.890;4.744;2023-08-07T08:38:07;18.00;99.90
8792;DHT22;4432;50.890;4.744;2023-08-07T08:40:33;18.20;99.90
8792;DHT22;4432;50.890;4.744;2023-08-07T08:43:00;18.30;99.90
8792;DHT22;4432;50.890;4.744;2023-08-07T08:45:27;18.20;99.90
8792;DHT22;4432;50.890;4.744;2023-08-07T08:48:01;17.90;99.90
8792;DHT22;4432;50.890;4.744;2023-08-07T08:50:27;17.70;99.90
8792;DHT22;4432;50.890;4.744;2023-08-07T08:52:55;17.50;99.90
8792;DHT22;4432;50.890;4.744;2023-08-07T08:55:22;17.40;99.90
8792;DHT22;4432;50.890;4.744;2023-08-07T08:57:48;17.70;99.90
8792;DHT22;4432;50.890;4.744;2023-08-07T09:00:16;18.00;99.90
8792;DHT22;4432;50.890;4.744;2023-08-07T09:02:48;18.40;99.90
8792;DHT22;4432;50.890;4.744;2023-08-07T09:05:15;18.60;99.90
8792;DHT22;4432;50.890;4.744;2023-08-07T09:07:42;18.70;99.90
8792;DHT22;4432;50.890;4.744;2023-08-07T09:10:09;18.50;99.90
8792;DHT22;4432;50.890;4.744;2023-08-07T09:12:40;18.40;99.90
8792;DHT22;4432;50.890;4.744;2023-08-07T09:15:07;18.20;99.90
8792;DHT22;4432;50.890;4.744;2023-08-07T09:17:39;18.40;99.90
8792;DHT22;4432;50.890;4.744;2023-08-07T09:20:09;19.30;99.90
8792;DHT22;4432;50.890;4.744;2023-08-07T09:22:41;19.90;99.90
8792;DHT22;4432;50.890;4.744;2023-08-07T09:25:07;20.40;99.90
8792;DHT22;4432;50.890;4.744;2023-08-07T09:27:38;20.70;99.90
8792;DHT22;4432;50.890;4.744;2023-08-07T09:30:08;21.10;99.90
8792;DHT22;4432;50.890;4.744;2023-08-07T09:32:36;21.30;99.90
8792;DHT22;4432;50.890;4.744;2023-08-07T09:35:05;20.90;99.90
8792;DHT22;4432;50.890;4.744;2023-08-07T09:37:31;20.30;99.90
8792;DHT22;4432;50.890;4.744;2023-08-07T09:40:00;19.80;99.90
8792;DHT22;4432;50.890;4.744;2023-08-07T09:42:26;19.40;99.90
8792;DHT22;4432;50.890;4.744;2023-08-07T09:44:55;19.70;99.90
8792;DHT22;4432;50.890;4.744;2023-08-07T09:47:21;20.40;99.90
8792;DHT22;4432;50.890;4.744;2023-08-07T09:49:48;20.50;99.90
8792;DHT22;4432;50.890;4.744;2023-08-07T09:52:14;20.00;99.90
8792;DHT22;4432;50.890;4.744;2023-08-07T09:54:41;19.50;99.90
8792;DHT22;4432;50.890;4.744;2023-08-07T09:57:07;19.10;99.90
8792;DHT22;4432;50.890;4.744;2023-08-07T09:59:33;19.20;99.90
8792;DHT22;4432;50.890;4.744;2023-08-07T10:02:03;20.10;99.90
8792;DHT22;4432;50.890;4.744;2023-08-07T10:04:30;20.80;99.90
8792;DHT22;4432;50.890;4.744;2023-08-07T10:06:57;21.00;99.90
8792;DHT22;4432;50.890;4.744;2023-08-07T10:09:23;21.30;99.90
8792;DHT22;4432;50.890;4.744;2023-08-07T10:11:50;21.60;99.90
8792;DHT22;4432;50.890;4.744;2023-08-07T10:14:16;21.40;99.90
8792;DHT22;4432;50.890;4.744;2023-08-07T10:16:42;20.70;99.90
8792;DHT22;4432;50.890;4.744;2023-08-07T10:19:09;20.10;99.90
8792;DHT22;4432;50.890;4.744;2023-08-07T10:21:39;20.30;99.90
8792;DHT22;4432;50.890;4.744;2023-08-07T10:24:07;20.50;99.90
8792;DHT22;4432;50.890;4.744;2023-08-07T10:26:35;20.60;99.90
8792;DHT22;4432;50.890;4.744;2023-08-07T10:29:04;20.50;99.90
8792;DHT22;4432;50.890;4.744;2023-08-07T10:31:31;20.40;99.90
8792;DHT22;4432;50.890;4.744;2023-08-07T10:33:59;20.20;99.90
8792;DHT22;4432;50.890;4.744;2023-08-07T10:36:32;19.90;99.90
8792;DHT22;4432;50.890;4.744;2023-08-07T10:39:09;19.60;99.90
8792;DHT22;4432;50.890;4.744;2023-08-07T10:41:39;19.50;99.90
8792;DHT22;4432;50.890;4.744;2023-08-07T10:44:05;19.90;99.90
8792;DHT22;4432;50.890;4.744;2023-08-07T10:46:47;20.30;99.90
8792;DHT22;4432;50.890;4.744;2023-08-07T10:51:56;20.30;99.90
8792;DHT22;4432;50.890;4.744;2023-08-07T10:54:23;20.10;99.90
8792;DHT22;4432;50.890;4.744;2023-08-07T10:56:53;20.30;99.90
8792;DHT22;4432;50.890;4.744;2023-08-07T10:59:20;20.90;99.90
8792;DHT22;4432;50.890;4.744;2023-08-07T11:01:51;21.30;99.90
8792;DHT22;4432;50.890;4.744;2023-08-07T11:04:17;21.40;99.90
8792;DHT22;4432;50.890;4.744;2023-08-07T11:06:47;21.70;99.90
8792;DHT22;4432;50.890;4.744;2023-08-07T11:09:13;21.30;99.90
8792;DHT22;4432;50.890;4.744;2023-08-07T11:11:41;21.40;99.90
8792;DHT22;4432;50.890;4.744;2023-08-07T11:14:18;21.50;99.90
8792;DHT22;4432;50.890;4.744;2023-08-07T11:16:46;21.50;99.90
8792;DHT22;4432;50.890;4.744;2023-08-07T11:19:14;21.20;99.90
8792;DHT22;4432;50.890;4.744;2023-08-07T11:21:41;20.90;99.90
8792;DHT22;4432;50.890;4.744;2023-08-07T11:24:08;20.50;99.90
8792;DHT22;4432;50.890;4.744;2023-08-07T11:26:34;20.50;99.90
8792;DHT22;4432;50.890;4.744;2023-08-07T11:28:59;20.80;99.90
8792;DHT22;4432;50.890;4.744;2023-08-07T11:31:25;21.40;99.90
8792;DHT22;4432;50.890;4.744;2023-08-07T11:33:52;21.80;99.90
8792;DHT22;4432;50.890;4.744;2023-08-07T11:36:18;22.20;99.90
8792;DHT22;4432;50.890;4.744;2023-08-07T11:38:44;22.60;99.90
8792;DHT22;4432;50.890;4.744;2023-08-07T11:41:12;22.90;99.90
8792;DHT22;4432;50.890;4.744;2023-08-07T11:43:39;22.70;98.90
8792;DHT22;4432;50.890;4.744;2023-08-07T11:46:11;22.50;99.90
8792;DHT22;4432;50.890;4.744;2023-08-07T11:48:39;22.30;99.90
8792;DHT22;4432;50.890;4.744;2023-08-07T11:51:05;22.00;99.90
8792;DHT22;4432;50.890;4.744;2023-08-07T11:53:36;21.70;99.90
8792;DHT22;4432;50.890;4.744;2023-08-07T11:56:04;21.60;99.70
8792;DHT22;4432;50.890;4.744;2023-08-07T12:01:13;21.50;99.90
8792;DHT22;4432;50.890;4.744;2023-08-07T12:03:42;21.40;99.90
8792;DHT22;4432;50.890;4.744;2023-08-07T12:06:09;21.70;99.90
8792;DHT22;4432;50.890;4.744;2023-08-07T12:08:37;21.80;99.90
8792;DHT22;4432;50.890;4.744;2023-08-07T12:11:08;21.70;99.90
8792;DHT22;4432;50.890;4.744;2023-08-07T12:13:38;21.70;99.90
8792;DHT22;4432;50.890;4.744;2023-08-07T12:16:04;21.80;99.90
8792;DHT22;4432;50.890;4.744;2023-08-07T12:18:31;22.10;99.90
8792;DHT22;4432;50.890;4.744;2023-08-07T12:21:03;22.20;99.90
8792;DHT22;4432;50.890;4.744;2023-08-07T12:23:35;22.00;99.90
8792;DHT22;4432;50.890;4.744;2023-08-07T12:26:03;21.80;99.90
8792;DHT22;4432;50.890;4.744;2023-08-07T12:28:31;21.80;99.90
8792;DHT22;4432;50.890;4.744;2023-08-07T12:30:57;22.20;99.10
8792;DHT22;4432;50.890;4.744;2023-08-07T12:33:22;22.50;99.40
8792;DHT22;4432;50.890;4.744;2023-08-07T12:35:48;22.80;99.90
8792;DHT22;4432;50.890;4.744;2023-08-07T12:38:14;22.90;98.80
8792;DHT22;4432;50.890;4.744;2023-08-07T12:40:40;22.70;98.70
8792;DHT22;4432;50.890;4.744;2023-08-07T12:43:07;22.30;99.90
8792;DHT22;4432;50.890;4.744;2023-08-07T12:45:33;22.10;99.60
8792;DHT22;4432;50.890;4.744;2023-08-07T12:47:59;22.00;99.90
8792;DHT22;4432;50.890;4.744;2023-08-07T12:50:26;22.30;99.90
8792;DHT22;4432;50.890;4.744;2023-08-07T12:52:51;22.70;99.90
8792;DHT22;4432;50.890;4.744;2023-08-07T12:55:17;23.00;99.90
8792;DHT22;4432;50.890;4.744;2023-08-07T12:57:44;23.10;98.40
8792;DHT22;4432;50.890;4.744;2023-08-07T13:00:10;23.00;99.30
8792;DHT22;4432;50.890;4.744;2023-08-07T13:02:47;22.80;99.40
8792;DHT22;4432;50.890;4.744;2023-08-07T13:05:14;22.80;99.90
8792;DHT22;4432;50.890;4.744;2023-08-07T13:07:41;23.20;98.60
8792;DHT22;4432;50.890;4.744;2023-08-07T13:10:10;23.20;99.60
8792;DHT22;4432;50.890;4.744;2023-08-07T13:12:37;23.00;99.20
8792;DHT22;4432;50.890;4.744;2023-08-07T13:15:04;22.70;99.90
8792;DHT22;4432;50.890;4.744;2023-08-07T13:17:31;22.90;99.80
8792;DHT22;4432;50.890;4.744;2023-08-07T13:19:57;23.10;99.40
8792;DHT22;4432;50.890;4.744;2023-08-07T13:22:23;23.40;98.90
8792;DHT22;4432;50.890;4.744;2023-08-07T13:24:48;23.60;98.10
8792;DHT22;4432;50.890;4.744;2023-08-07T13:27:14;23.00;99.90
8792;DHT22;4432;50.890;4.744;2023-08-07T13:29:40;22.70;99.50
8792;DHT22;4432;50.890;4.744;2023-08-07T13:32:06;22.70;97.90
8792;DHT22;4432;50.890;4.744;2023-08-07T13:34:35;22.50;98.70
8792;DHT22;4432;50.890;4.744;2023-08-07T13:37:02;22.10;98.50
8792;DHT22;4432;50.890;4.744;2023-08-07T13:39:28;21.80;98.80
8792;DHT22;4432;50.890;4.744;2023-08-07T13:41:54;21.60;99.90
8792;DHT22;4432;50.890;4.744;2023-08-07T13:44:19;21.50;99.90
8792;DHT22;4432;50.890;4.744;2023-08-07T13:46:48;21.50;99.90
8792;DHT22;4432;50.890;4.744;2023-08-07T13:49:14;21.40;99.90
8792;DHT22;4432;50.890;4.744;2023-08-07T13:51:43;21.50;99.90
8792;DHT22;4432;50.890;4.744;2023-08-07T13:54:10;21.50;99.90
8792;DHT22;4432;50.890;4.744;2023-08-07T13:56:36;21.30;99.90
8792;DHT22;4432;50.890;4.744;2023-08-07T13:59:01;21.20;99.90
8792;DHT22;4432;50.890;4.744;2023-08-07T14:01:27;21.20;99.90
8792;DHT22;4432;50.890;4.744;2023-08-07T14:03:54;21.50;99.90
8792;DHT22;4432;50.890;4.744;2023-08-07T14:06:20;21.50;99.90
8792;DHT22;4432;50.890;4.744;2023-08-07T14:08:46;21.50;99.90
8792;DHT22;4432;50.890;4.744;2023-08-07T14:11:12;21.30;99.90
8792;DHT22;4432;50.890;4.744;2023-08-07T14:13:40;21.40;99.90
8792;DHT22;4432;50.890;4.744;2023-08-07T14:16:06;21.50;99.90
8792;DHT22;4432;50.890;4.744;2023-08-07T14:18:32;21.50;99.90
8792;DHT22;4432;50.890;4.744;2023-08-07T14:20:58;21.40;99.90
8792;DHT22;4432;50.890;4.744;2023-08-07T14:23:24;21.30;99.90
8792;DHT22;4432;50.890;4.744;2023-08-07T14:25:50;21.40;99.90
8792;DHT22;4432;50.890;4.744;2023-08-07T14:28:17;21.70;99.90
8792;DHT22;4432;50.890;4.744;2023-08-07T14:30:43;21.80;99.90
8792;DHT22;4432;50.890;4.744;2023-08-07T14:33:08;21.80;99.90
8792;DHT22;4432;50.890;4.744;2023-08-07T14:35:34;22.10;99.20
8792;DHT22;4432;50.890;4.744;2023-08-07T14:38:00;22.00;99.30
8792;DHT22;4432;50.890;4.744;2023-08-07T14:40:26;22.10;98.90
8792;DHT22;4432;50.890;4.744;2023-08-07T14:42:53;22.30;99.20
8792;DHT22;4432;50.890;4.744;2023-08-07T14:45:20;22.50;99.60
8792;DHT22;4432;50.890;4.744;2023-08-07T14:47:48;22.60;99.50
8792;DHT22;4432;50.890;4.744;2023-08-07T14:50:14;22.50;99.90
8792;DHT22;4432;50.890;4.744;2023-08-07T14:52:45;22.40;99.90
8792;DHT22;4432;50.890;4.744;2023-08-07T14:55:10;22.30;98.60
8792;DHT22;4432;50.890;4.744;2023-08-07T14:57:36;22.30;98.00
8792;DHT22;4432;50.890;4.744;2023-08-07T15:00:02;22.30;98.70
8792;DHT22;4432;50.890;4.744;2023-08-07T15:02:29;22.10;98.90
8792;DHT22;4432;50.890;4.744;2023-08-07T15:04:55;22.30;97.60
8792;DHT22;4432;50.890;4.744;2023-08-07T15:07:21;22.40;98.60
8792;DHT22;4432;50.890;4.744;2023-08-07T15:09:46;22.10;99.80
8792;DHT22;4432;50.890;4.744;2023-08-07T15:12:16;22.00;99.90
8792;DHT22;4432;50.890;4.744;2023-08-07T15:14:42;22.00;99.90
8792;DHT22;4432;50.890;4.744;2023-08-07T15:17:07;21.90;99.90
8792;DHT22;4432;50.890;4.744;2023-08-07T15:19:33;21.80;99.90
8792;DHT22;4432;50.890;4.744;2023-08-07T15:21:59;21.50;99.90
8792;DHT22;4432;50.890;4.744;2023-08-07T15:24:25;21.20;99.90
8792;DHT22;4432;50.890;4.744;2023-08-07T15:26:50;20.90;99.90
8792;DHT22;4432;50.890;4.744;2023-08-07T15:29:16;20.80;99.90
8792;DHT22;4432;50.890;4.744;2023-08-07T15:31:42;20.70;99.90
8792;DHT22;4432;50.890;4.744;2023-08-07T15:34:07;20.80;99.90
8792;DHT22;4432;50.890;4.744;2023-08-07T15:36:33;20.80;99.90
8792;DHT22;4432;50.890;4.744;2023-08-07T15:38:59;20.90;99.90
8792;DHT22;4432;50.890;4.744;2023-08-07T15:41:25;21.00;99.90
8792;DHT22;4432;50.890;4.744;2023-08-07T15:43:50;21.00;99.90
8792;DHT22;4432;50.890;4.744;2023-08-07T15:46:17;21.10;99.90
8792;DHT22;4432;50.890;4.744;2023-08-07T15:48:43;21.20;99.90
8792;DHT22;4432;50.890;4.744;2023-08-07T15:51:09;21.30;99.90
8792;DHT22;4432;50.890;4.744;2023-08-07T15:53:35;21.40;99.90
8792;DHT22;4432;50.890;4.744;2023-08-07T15:56:01;21.60;99.90
8792;DHT22;4432;50.890;4.744;2023-08-07T15:58:27;21.60;99.90
8792;DHT22;4432;50.890;4.744;2023-08-07T16:00:53;21.50;99.90
8792;DHT22;4432;50.890;4.744;2023-08-07T16:03:19;21.40;99.90
8792;DHT22;4432;50.890;4.744;2023-08-07T16:05:53;21.20;99.90
8792;DHT22;4432;50.890;4.744;2023-08-07T16:08:22;21.10;99.90
8792;DHT22;4432;50.890;4.744;2023-08-07T16:10:47;21.10;99.90